Aeroporto :
LOGIN :

Iscrizione | Disclaimer

   EN    FR    IT 

 










Sommario :    VFR   VFR Marginale   IFR   IFR Intensivo   IFR Molto Intensivo
Visibilità : 
Base nubi : 
>= 8 km
>= 3000ft
5 / 8 km
1000 / 3000 ft
1500m / 5 km
500 / 1000 ft
800 / 1500m
200 / 500 ft
< 800m
< 200 ft
Simboli :   Temporali  Nebbia  Neve Forte  Precipitazioni Forti  Vento > 20 kt
SIGMETs :   Varie  Temporali  Ghiacco  Turbolenza  Onda orograficha  Ceneri Vulcaniche






- Altitudine del aeroporto : 187 ft


ETNW - Wunstorf AB

ULTIMO METAR :
  • 180820Z 23011KT 9999 SCT016 SCT210 05/02 Q1021 BLU+

METARs OBSOLETI :
  • 180720Z 25012KT 9999 BKN016 05/02 Q1021 WHT
  • 180620Z 25012KT 9999 BKN016 SCT210 04/02 Q1020 WHT

TAF TAF ETNW
Valido dal 18 a 06 ore il 19 a 06 ore UTC


180500Z 1806/1906 24008KT 8000 NSW SCT030 BKN200
TEMPO 1806/1815 24012G28KT 5000 -SHRA SCT006 BKN012TCU
TEMPO 1821/1906 26008KT 4000 BR BKN010 BKN020 BY ETGL



MetMap, La meteo Aeronautica in un colpo d'occhio ! - Copyright ORBIFLY Dicembre 2007 - Disclaimer

ORBIFLY MET'MAP TEAM :

Programmazione e sviluppo : Alexandra Zaïnal
Concezione : Baudouin d'Aumeries
Aiuto per la programmazione : Marc-Olivier Méhu
Supporto tecnico e logistico : Manuel Goepfert
Aiuto per la traduzione : Arnaldo La Scala

Contatto : metmap@orbifly.com




FONTI E CREDITI :

   NOAA